createdAt,value
2022-10-17T00:02:04.282Z,3.72
2022-10-17T00:04:50.413Z,3.83
2022-10-17T00:07:36.915Z,4.28
2022-10-17T00:10:24.509Z,3.75
2022-10-17T00:13:13.095Z,3.50
2022-10-17T00:15:59.839Z,3.58
2022-10-17T00:18:46.015Z,3.50
2022-10-17T00:21:32.820Z,3.50
2022-10-17T00:24:19.323Z,3.45
2022-10-17T00:27:05.918Z,4.22
2022-10-17T00:29:53.545Z,3.90
2022-10-17T00:32:39.951Z,4.03
2022-10-17T00:35:26.570Z,3.70
2022-10-17T00:38:12.730Z,3.78
2022-10-17T00:40:59.064Z,3.70
2022-10-17T00:43:58.321Z,3.53
2022-10-17T00:46:46.174Z,3.58
2022-10-17T00:49:35.433Z,3.83
2022-10-17T00:52:25.207Z,4.18
2022-10-17T00:55:15.998Z,3.58
2022-10-17T00:58:04.642Z,3.83
2022-10-17T01:00:50.982Z,4.05
2022-10-17T01:03:38.783Z,4.65
2022-10-17T01:06:25.279Z,5.13
2022-10-17T01:09:12.045Z,4.85
2022-10-17T01:12:05.694Z,4.78
2022-10-17T01:15:05.342Z,5.15
2022-10-17T01:18:05.264Z,4.65
2022-10-17T01:21:32.391Z,4.90
2022-10-17T01:24:56.701Z,5.32
2022-10-17T01:27:58.689Z,4.53
2022-10-17T01:31:00.245Z,4.63
2022-10-17T01:33:54.806Z,4.47
2022-10-17T01:36:49.049Z,4.85
2022-10-17T01:39:45.325Z,4.50
2022-10-17T01:42:39.377Z,4.55
2022-10-17T01:45:30.756Z,4.50
2022-10-17T01:48:21.598Z,4.65
2022-10-17T01:51:12.265Z,4.32
2022-10-17T01:54:03.063Z,4.50
2022-10-17T01:56:53.694Z,4.28
2022-10-17T01:59:43.010Z,4.18
2022-10-17T02:02:30.305Z,4.20
2022-10-17T02:05:19.754Z,4.65
2022-10-17T02:08:06.773Z,4.38
2022-10-17T02:10:58.113Z,4.03
2022-10-17T02:14:07.849Z,3.65
2022-10-17T02:17:04.281Z,3.78
2022-10-17T02:19:59.432Z,3.72
2022-10-17T02:22:52.359Z,4.00
2022-10-17T02:25:45.186Z,4.03
2022-10-17T02:28:38.738Z,4.10
2022-10-17T02:31:29.960Z,4.05
2022-10-17T02:34:21.083Z,3.97
2022-10-17T02:37:10.458Z,3.90
2022-10-17T02:40:00.538Z,3.80
2022-10-17T02:42:47.694Z,3.80
2022-10-17T02:45:36.132Z,3.75
2022-10-17T02:48:28.910Z,4.10
2022-10-17T02:51:25.045Z,3.83
2022-10-17T02:54:15.401Z,3.90
2022-10-17T02:57:11.365Z,4.40
2022-10-17T02:59:59.931Z,3.72
2022-10-17T03:02:48.472Z,3.85
2022-10-17T03:05:34.714Z,3.72
2022-10-17T03:08:21.593Z,3.65
2022-10-17T03:11:08.107Z,3.90
2022-10-17T03:13:56.194Z,3.42
2022-10-17T03:16:42.663Z,3.90
2022-10-17T03:19:28.931Z,3.72
2022-10-17T03:22:15.501Z,3.58
2022-10-17T03:25:01.692Z,3.85
2022-10-17T03:27:48.279Z,3.80
2022-10-17T03:30:36.121Z,3.70
2022-10-17T03:33:22.558Z,4.20
2022-10-17T03:36:09.939Z,3.95
2022-10-17T03:38:56.309Z,3.85
2022-10-17T03:41:42.689Z,3.88
2022-10-17T03:44:29.264Z,4.03
2022-10-17T03:47:17.173Z,4.00
2022-10-17T03:50:04.160Z,4.78
2022-10-17T03:52:50.817Z,4.38
2022-10-17T03:55:37.111Z,4.40
2022-10-17T03:58:23.322Z,4.30
2022-10-17T04:01:11.784Z,4.63
2022-10-17T04:03:59.583Z,3.72
2022-10-17T04:06:45.862Z,4.07
2022-10-17T04:09:32.197Z,4.00
2022-10-17T04:12:18.879Z,4.05
2022-10-17T04:15:06.014Z,4.18
2022-10-17T04:17:52.124Z,4.97
2022-10-17T04:20:39.702Z,5.57
2022-10-17T04:23:27.123Z,5.72
2022-10-17T04:26:13.799Z,4.50
2022-10-17T04:29:00.140Z,4.18
2022-10-17T04:31:46.309Z,3.90
2022-10-17T04:34:32.914Z,3.63
2022-10-17T04:37:20.614Z,3.78
2022-10-17T04:40:08.072Z,4.22
2022-10-17T04:42:54.577Z,4.45
2022-10-17T04:45:41.125Z,5.63
2022-10-17T04:48:27.613Z,4.00
2022-10-17T04:51:15.760Z,4.00
2022-10-17T04:54:03.596Z,4.20
2022-10-17T04:56:50.399Z,4.18
2022-10-17T04:59:36.502Z,4.20
2022-10-17T05:02:23.282Z,4.18
2022-10-17T05:05:10.157Z,4.07
2022-10-17T05:07:56.394Z,4.50
2022-10-17T05:10:46.078Z,13.23
2022-10-17T05:13:33.748Z,7.03
2022-10-17T05:16:20.049Z,4.55
2022-10-17T05:19:06.531Z,4.60
2022-10-17T05:21:52.909Z,4.85
2022-10-17T05:24:39.326Z,4.18
2022-10-17T05:27:26.873Z,4.15
2022-10-17T05:30:13.731Z,4.55
2022-10-17T05:32:59.862Z,4.70
2022-10-17T05:35:46.357Z,5.40
2022-10-17T05:38:33.128Z,6.88
2022-10-17T05:41:20.283Z,7.55
2022-10-17T05:44:08.059Z,7.88
2022-10-17T05:46:54.489Z,7.18
2022-10-17T05:49:46.434Z,7.78
2022-10-17T05:52:38.016Z,6.68
2022-10-17T05:55:24.582Z,7.07
2022-10-17T05:58:17.707Z,6.80
2022-10-17T06:01:12.856Z,5.65
2022-10-17T06:03:59.514Z,5.43
2022-10-17T06:06:45.743Z,5.25
2022-10-17T06:09:32.418Z,4.80
2022-10-17T06:12:19.041Z,4.70
2022-10-17T06:15:05.963Z,4.68
2022-10-17T06:17:53.682Z,4.80
2022-10-17T06:20:45.202Z,4.53
2022-10-17T06:23:32.821Z,4.13
2022-10-17T06:26:19.313Z,3.83
2022-10-17T06:29:05.811Z,4.50
2022-10-17T06:31:52.630Z,4.72
2022-10-17T06:34:40.133Z,4.18
2022-10-17T06:37:27.736Z,4.15
2022-10-17T06:40:17.150Z,4.00
2022-10-17T06:43:03.665Z,4.55
2022-10-17T06:45:50.268Z,4.40
2022-10-17T06:48:36.782Z,4.13
2022-10-17T06:51:24.520Z,4.30
2022-10-17T06:54:10.886Z,4.68
2022-10-17T06:56:57.448Z,5.57
2022-10-17T06:59:43.969Z,7.13
2022-10-17T07:02:30.425Z,6.82
2022-10-17T07:05:19.161Z,6.25
2022-10-17T07:08:07.780Z,5.05
2022-10-17T07:10:54.955Z,4.88
2022-10-17T07:13:41.544Z,4.10
2022-10-17T07:16:28.476Z,4.03
2022-10-17T07:19:14.959Z,4.10
2022-10-17T07:22:01.604Z,3.83
2022-10-17T07:27:36.802Z,4.30
2022-10-17T07:30:23.630Z,3.95
2022-10-17T07:33:10.143Z,3.60
2022-10-17T07:35:58.903Z,3.90
2022-10-17T07:38:45.463Z,3.30
2022-10-17T07:41:33.549Z,4.07
2022-10-17T07:44:20.841Z,3.63
2022-10-17T07:47:07.274Z,3.50
2022-10-17T07:49:53.820Z,3.83
2022-10-17T07:52:42.647Z,4.22
2022-10-17T07:55:29.325Z,4.50
2022-10-17T07:58:17.395Z,4.03
2022-10-17T08:01:05.312Z,4.63
2022-10-17T08:03:53.256Z,3.70
2022-10-17T08:06:39.437Z,3.78
2022-10-17T08:09:25.682Z,3.72
2022-10-17T08:12:12.177Z,4.00
2022-10-17T08:14:59.903Z,3.97
2022-10-17T08:17:46.893Z,4.53
2022-10-17T08:20:33.078Z,4.40
2022-10-17T08:23:19.700Z,5.35
2022-10-17T08:26:10.297Z,3.72
2022-10-17T08:28:56.586Z,3.67
2022-10-17T08:31:47.736Z,3.58
2022-10-17T08:34:35.208Z,3.20
2022-10-17T08:37:21.386Z,3.25
2022-10-17T08:40:11.078Z,3.35
2022-10-17T08:43:11.585Z,3.35
2022-10-17T08:46:02.957Z,4.00
2022-10-17T08:48:52.687Z,3.90
2022-10-17T08:51:48.633Z,3.13
2022-10-17T08:54:42.809Z,3.13
2022-10-17T08:57:29.918Z,3.53
2022-10-17T09:00:19.634Z,2.90
2022-10-17T09:03:20.574Z,3.50
2022-10-17T09:06:21.606Z,2.78
2022-10-17T09:09:22.356Z,3.05
2022-10-17T09:12:18.777Z,3.00
2022-10-17T09:15:23.427Z,2.97
2022-10-17T09:18:15.814Z,3.70
2022-10-17T09:21:11.922Z,3.00
2022-10-17T09:24:09.689Z,2.60
2022-10-17T09:27:01.889Z,3.22
2022-10-17T09:29:51.517Z,2.90
2022-10-17T09:32:38.883Z,2.65
2022-10-17T09:35:26.402Z,3.00
2022-10-17T09:38:17.894Z,3.20
2022-10-17T09:41:25.647Z,3.60
2022-10-17T09:44:22.769Z,3.42
2022-10-17T09:47:23.661Z,2.53
2022-10-17T09:50:16.354Z,2.80
2022-10-17T09:53:08.509Z,3.30
2022-10-17T09:55:58.622Z,2.78
2022-10-17T09:58:48.949Z,2.88
2022-10-17T10:01:35.402Z,3.75
2022-10-17T10:04:21.902Z,3.20
2022-10-17T10:07:14.070Z,3.33
2022-10-17T10:10:02.831Z,3.25
2022-10-17T10:13:04.050Z,2.90
2022-10-17T10:15:52.690Z,2.83
2022-10-17T10:18:39.066Z,3.22
2022-10-17T10:21:26.742Z,3.30
2022-10-17T10:24:14.987Z,3.03
2022-10-17T10:27:04.633Z,3.00
2022-10-17T10:29:53.089Z,3.10
2022-10-17T10:32:40.865Z,2.88
2022-10-17T10:35:32.978Z,2.65
2022-10-17T10:38:21.427Z,2.78
2022-10-17T10:41:10.159Z,2.95
2022-10-17T10:43:57.296Z,2.85
2022-10-17T10:46:43.602Z,3.80
2022-10-17T10:49:32.866Z,2.80
2022-10-17T10:52:33.896Z,3.35
2022-10-17T10:55:26.506Z,2.80
2022-10-17T10:58:28.735Z,3.13
2022-10-17T11:01:21.155Z,2.90
2022-10-17T11:04:20.481Z,3.05
2022-10-17T11:07:14.103Z,3.30
2022-10-17T11:10:11.058Z,3.17
2022-10-17T11:13:04.569Z,3.25
2022-10-17T11:15:56.140Z,2.60
2022-10-17T11:18:48.253Z,2.97
2022-10-17T11:21:42.619Z,3.15
2022-10-17T11:24:35.129Z,3.20
2022-10-17T11:27:21.407Z,2.90
2022-10-17T11:30:13.342Z,2.90
2022-10-17T11:33:02.942Z,3.28
2022-10-17T11:35:52.777Z,3.00
2022-10-17T11:38:45.763Z,3.05
2022-10-17T11:41:42.118Z,2.88
2022-10-17T11:44:32.469Z,2.80
2022-10-17T11:47:30.840Z,2.80
2022-10-17T11:53:38.175Z,3.03
2022-10-17T11:56:32.505Z,2.47
2022-10-17T11:59:47.995Z,2.33
2022-10-17T12:02:43.407Z,2.80
2022-10-17T12:05:38.504Z,2.78
2022-10-17T12:08:31.590Z,2.30
2022-10-17T12:11:34.511Z,3.00
2022-10-17T12:14:42.054Z,4.40
2022-10-17T12:17:35.373Z,2.85
2022-10-17T12:20:31.266Z,2.50
2022-10-17T12:23:36.437Z,2.97
2022-10-17T12:26:27.731Z,2.53
2022-10-17T12:29:28.059Z,2.40
2022-10-17T12:32:16.610Z,2.85
2022-10-17T12:35:02.983Z,2.83
2022-10-17T12:38:24.125Z,2.42
2022-10-17T12:41:11.589Z,2.33
2022-10-17T12:43:57.923Z,2.53
2022-10-17T12:46:50.870Z,2.50
2022-10-17T12:49:40.986Z,2.55
2022-10-17T12:52:59.552Z,2.60
2022-10-17T12:55:45.886Z,2.85
2022-10-17T12:58:32.279Z,2.70
2022-10-17T13:01:24.863Z,2.33
2022-10-17T13:04:12.538Z,3.00
2022-10-17T13:07:01.347Z,2.97
2022-10-17T13:09:50.213Z,2.80
2022-10-17T13:12:41.232Z,2.60
2022-10-17T13:15:28.950Z,2.40
2022-10-17T13:18:21.434Z,2.80
2022-10-17T13:21:16.555Z,2.83
2022-10-17T13:24:21.040Z,3.28
2022-10-17T13:27:24.478Z,2.80
2022-10-17T13:30:30.926Z,2.80
2022-10-17T13:33:33.598Z,2.63
2022-10-17T13:36:20.321Z,2.70
2022-10-17T13:39:12.377Z,2.40
2022-10-17T13:42:01.280Z,2.75
2022-10-17T13:44:48.401Z,2.67
2022-10-17T13:47:38.605Z,2.50
2022-10-17T13:50:44.086Z,2.35
2022-10-17T13:53:33.399Z,2.67
2022-10-17T13:56:29.798Z,3.47
2022-10-17T13:59:24.883Z,2.58
2022-10-17T14:02:24.600Z,3.72
2022-10-17T14:05:19.038Z,3.22
2022-10-17T14:08:11.994Z,2.78
2022-10-17T14:11:01.134Z,2.92
2022-10-17T14:13:52.966Z,3.10
2022-10-17T14:16:41.658Z,3.10
2022-10-17T14:19:30.506Z,3.45
2022-10-17T14:22:19.367Z,3.05
2022-10-17T14:25:06.290Z,2.70
2022-10-17T14:28:03.360Z,2.83
2022-10-17T14:30:57.428Z,3.35
2022-10-17T14:33:50.502Z,2.85
2022-10-17T14:36:41.946Z,2.60
2022-10-17T14:39:29.762Z,2.67
2022-10-17T14:42:21.390Z,2.97
2022-10-17T14:45:13.369Z,2.72
2022-10-17T14:48:05.636Z,2.80
2022-10-17T14:51:09.807Z,2.90
2022-10-17T14:54:05.695Z,2.90
2022-10-17T14:56:53.495Z,2.78
2022-10-17T14:59:53.857Z,3.13
2022-10-17T15:02:41.348Z,2.72
2022-10-17T15:05:28.958Z,3.20
2022-10-17T15:08:17.961Z,3.00
2022-10-17T15:11:04.164Z,2.78
2022-10-17T15:13:50.544Z,3.17
2022-10-17T15:16:39.336Z,2.95
2022-10-17T15:19:25.897Z,3.08
2022-10-17T15:22:14.705Z,2.83
2022-10-17T15:25:00.991Z,2.97
2022-10-17T15:27:47.302Z,2.83
2022-10-17T15:30:37.267Z,3.50
2022-10-17T15:33:23.826Z,3.50
2022-10-17T15:36:25.501Z,3.25
2022-10-17T15:39:13.273Z,2.95
2022-10-17T15:41:59.817Z,2.80
2022-10-17T15:44:49.455Z,3.25
2022-10-17T15:47:37.481Z,3.00
2022-10-17T15:50:24.269Z,3.33
2022-10-17T15:53:12.962Z,3.10
2022-10-17T15:56:01.252Z,3.13
2022-10-17T15:58:47.833Z,3.00
2022-10-17T16:01:35.180Z,3.30
2022-10-17T16:04:23.938Z,2.83
2022-10-17T16:07:10.733Z,3.15
2022-10-17T16:09:57.386Z,3.25
2022-10-17T16:12:46.334Z,2.88
2022-10-17T16:15:32.904Z,3.60
2022-10-17T16:18:20.099Z,3.42
2022-10-17T16:21:10.565Z,3.55
2022-10-17T16:23:57.246Z,3.20
2022-10-17T16:26:43.785Z,3.10
2022-10-17T16:29:31.529Z,3.13
2022-10-17T16:32:17.766Z,3.55
2022-10-17T16:35:04.350Z,3.50
2022-10-17T16:37:51.246Z,3.33
2022-10-17T16:40:39.741Z,4.07
2022-10-17T16:43:25.998Z,3.53
2022-10-17T16:46:13.670Z,3.42
2022-10-17T16:49:00.557Z,3.83
2022-10-17T16:51:46.738Z,3.65
2022-10-17T16:54:34.800Z,4.60
2022-10-17T16:57:21.290Z,5.28
2022-10-17T17:00:12.705Z,5.20
2022-10-17T17:03:00.667Z,5.45
2022-10-17T17:05:51.336Z,6.15
2022-10-17T17:08:38.102Z,7.22
2022-10-17T17:11:26.914Z,5.25
2022-10-17T17:14:13.356Z,4.57
2022-10-17T17:16:59.897Z,4.82
2022-10-17T17:19:47.850Z,4.78
2022-10-17T17:22:34.342Z,4.53
2022-10-17T17:25:20.625Z,4.35
2022-10-17T17:28:07.850Z,4.50
2022-10-17T17:30:54.218Z,4.53
2022-10-17T17:33:42.266Z,4.10
2022-10-17T17:36:32.329Z,3.90
2022-10-17T17:39:18.848Z,3.80
2022-10-17T17:42:05.357Z,7.45
2022-10-17T17:44:52.142Z,6.40
2022-10-17T17:47:38.568Z,6.38
2022-10-17T17:50:25.059Z,6.28
2022-10-17T17:53:14.638Z,6.70
2022-10-17T17:56:05.827Z,5.93
2022-10-17T17:58:56.211Z,5.68
2022-10-17T18:01:42.732Z,5.65
2022-10-17T18:04:29.093Z,5.25
2022-10-17T18:07:15.622Z,5.20
2022-10-17T18:10:03.464Z,4.57
2022-10-17T18:12:49.595Z,4.20
2022-10-17T18:15:36.090Z,4.55
2022-10-17T18:18:22.345Z,3.83
2022-10-17T18:21:09.063Z,4.22
2022-10-17T18:23:55.344Z,3.50
2022-10-17T18:26:43.037Z,4.10
2022-10-17T18:29:31.098Z,4.90
2022-10-17T18:32:18.090Z,5.45
2022-10-17T18:35:04.978Z,5.63
2022-10-17T18:37:51.145Z,7.22
2022-10-17T18:40:37.626Z,7.22
2022-10-17T18:43:25.216Z,9.85
2022-10-17T18:46:14.952Z,9.38
2022-10-17T18:49:01.323Z,7.50
2022-10-17T18:51:48.286Z,6.60
2022-10-17T18:54:34.819Z,6.63
2022-10-17T18:57:23.890Z,5.82
2022-10-17T19:00:14.657Z,4.70
2022-10-17T19:03:00.900Z,5.18
2022-10-17T19:05:48.440Z,5.03
2022-10-17T19:08:35.038Z,4.40
2022-10-17T19:11:24.345Z,4.28
2022-10-17T19:14:13.843Z,4.25
2022-10-17T19:17:01.802Z,4.35
2022-10-17T19:19:50.253Z,4.70
2022-10-17T19:22:36.323Z,3.97
2022-10-17T19:25:22.818Z,4.07
2022-10-17T19:28:09.189Z,4.65
2022-10-17T19:30:55.695Z,4.65
2022-10-17T19:33:43.302Z,4.20
2022-10-17T19:36:33.609Z,3.80
2022-10-17T19:39:22.794Z,4.53
2022-10-17T19:42:09.252Z,4.72
2022-10-17T19:44:55.483Z,3.80
2022-10-17T19:47:42.037Z,3.97
2022-10-17T19:50:29.938Z,3.38
2022-10-17T19:53:16.473Z,4.47
2022-10-17T19:56:03.817Z,4.40
2022-10-17T19:58:51.220Z,4.30
2022-10-17T20:01:39.618Z,3.85
2022-10-17T20:04:26.214Z,4.07
2022-10-17T20:07:14.043Z,4.05
2022-10-17T20:10:00.301Z,3.28
2022-10-17T20:12:46.673Z,4.05
2022-10-17T20:15:33.442Z,3.92
2022-10-17T20:18:19.881Z,4.22
2022-10-17T20:21:08.629Z,5.03
2022-10-17T20:23:56.598Z,4.43
2022-10-17T20:26:44.483Z,4.25
2022-10-17T20:29:31.093Z,3.75
2022-10-17T20:32:17.611Z,3.60
2022-10-17T20:35:05.743Z,3.13
2022-10-17T20:37:53.086Z,2.63
2022-10-17T20:40:41.125Z,3.45
2022-10-17T20:43:27.666Z,3.38
2022-10-17T20:46:29.426Z,3.03
2022-10-17T20:49:21.780Z,3.40
2022-10-17T20:52:08.002Z,3.20
2022-10-17T20:54:54.524Z,3.33
2022-10-17T20:57:42.230Z,2.92
2022-10-17T21:00:28.699Z,3.20
2022-10-17T21:03:15.057Z,3.30
2022-10-17T21:06:01.554Z,3.22
2022-10-17T21:08:48.750Z,3.70
2022-10-17T21:11:35.493Z,3.25
2022-10-17T21:14:24.026Z,3.50
2022-10-17T21:17:10.690Z,3.40
2022-10-17T21:19:57.062Z,3.45
2022-10-17T21:22:43.360Z,3.03
2022-10-17T21:25:29.726Z,2.88
2022-10-17T21:28:16.111Z,3.28
2022-10-17T21:31:12.982Z,2.95
2022-10-17T21:34:09.316Z,3.38
2022-10-17T21:36:55.551Z,3.40
2022-10-17T21:39:42.078Z,3.13
2022-10-17T21:42:28.580Z,3.35
2022-10-17T21:45:24.873Z,3.42
2022-10-17T21:48:13.707Z,3.78
2022-10-17T21:51:01.450Z,3.78
2022-10-17T21:53:48.138Z,3.47
2022-10-17T21:56:36.286Z,3.40
2022-10-17T21:59:22.788Z,3.60
2022-10-17T22:02:09.429Z,3.47
2022-10-17T22:04:57.139Z,3.08
2022-10-17T22:07:43.613Z,3.78
2022-10-17T22:10:29.761Z,3.40
2022-10-17T22:13:16.349Z,3.70
2022-10-17T22:16:03.569Z,3.50
2022-10-17T22:18:50.542Z,3.30
2022-10-17T22:21:39.002Z,3.60
2022-10-17T22:24:25.499Z,3.47
2022-10-17T22:27:11.756Z,3.60
2022-10-17T22:29:58.144Z,4.03
2022-10-17T22:32:44.736Z,3.08
2022-10-17T22:35:31.128Z,3.42
2022-10-17T22:38:19.657Z,3.30
2022-10-17T22:41:06.677Z,3.80
2022-10-17T22:43:53.388Z,3.70
2022-10-17T22:46:39.633Z,3.70
2022-10-17T22:49:26.146Z,3.65
2022-10-17T22:52:12.627Z,3.70
2022-10-17T22:55:00.322Z,3.42
2022-10-17T22:57:46.819Z,3.30
2022-10-17T23:00:33.086Z,3.72
2022-10-17T23:03:20.997Z,3.40
2022-10-17T23:06:07.625Z,3.80
2022-10-17T23:08:53.841Z,4.00
2022-10-17T23:11:41.511Z,3.13
2022-10-17T23:14:27.935Z,3.42
2022-10-17T23:17:14.786Z,3.72
2022-10-17T23:20:01.044Z,3.50
2022-10-17T23:22:47.592Z,3.50
2022-10-17T23:25:34.473Z,3.80
2022-10-17T23:28:22.349Z,3.88
2022-10-17T23:31:15.085Z,3.88
2022-10-17T23:34:01.641Z,3.65
2022-10-17T23:36:48.414Z,3.75
2022-10-17T23:39:34.622Z,3.15
2022-10-17T23:42:21.205Z,3.70
2022-10-17T23:45:10.305Z,3.65
2022-10-17T23:47:56.749Z,3.60
2022-10-17T23:50:43.145Z,3.58
2022-10-17T23:53:29.386Z,3.35
2022-10-17T23:56:16.210Z,4.00
2022-10-17T23:59:02.436Z,4.20
